Strona główna
METAR-TAF:

METAR-TAF

Lotnisko :

Port lotniczy Chartum

Chartum, Sudan

Szerokość geograficzna: 15-36N, Długość geograficzna: 032-33E, wysokość: 382 m

Aktualna obserwacja pogody

Raport powstał 19 minut temu, godzina 20:00 UTC
Wiatr 13 kt od północ
Temperatura 21°C
Wilgotność 21%
Ciśnienie 1019 hPa
Widzialność 10 km lub więcej
Brak chmur poniżej 1500 m i brak chmur cumulonimbus

METAR: HSSS 192000Z 36013KT CAVOK 21/M02 Q1019 NOSIG

czas: 22:19 (20:19 UTC)

Prognoza

Raport powstał 3 godziny i 19 minut temu, godzina 17:00 UTC
Prognoza ważna od 19 godzina 18 UTC do 20 godzina 24 UTC
Wiatr 12 kt od północ w porywach dochodzący do 22 kt
Widzialność 10 km lub więcej
Brak chmur poniżej 1500 m i brak chmur cumulonimbus
Przejściowo
od 20 godzina 03 UTC do 20 godzina 06 UTC
Widzialność: 6000 m

TAF: HSSS 191700Z 1918/2024 36012G22KT CAVOK TEMPO 2003/2006 6000 NSC

Obserwacja i prognoza pogody dla ponad 4000 lotnisk (raport METAR i TAF).

Dostępne stacje oznaczono żółtymi i czerwonymi punktami na mapie.

Najedź kursorem aby zobaczyć nazwę stacji.

Kliknij aby zobaczyć obserwacje i prognozy pogody.

Aby zmienić mapę: kliknij na zielony przycisk z czarnym krzyżykiem, aby powiększyć; na zielony przycisk z myślnikiem, aby pomniejszyć; na zielone strzałki, aby przejść do map sąsiednich.


METAR-TAF: